createdAt,value
2018-12-31T00:00:58.244Z,98249.05
2018-12-31T00:03:27.807Z,98250.96
2018-12-31T00:05:57.276Z,98254.69
2018-12-31T00:08:26.772Z,98248.84
2018-12-31T00:10:56.252Z,98246.74
2018-12-31T00:13:25.631Z,98246.23
2018-12-31T00:15:55.237Z,98250.38
2018-12-31T00:18:24.807Z,98243.92
2018-12-31T00:20:54.304Z,98252.61
2018-12-31T00:23:23.889Z,98251.17
2018-12-31T00:25:53.376Z,98256.33
2018-12-31T00:28:22.876Z,98268.29
2018-12-31T00:30:52.330Z,98263.34
2018-12-31T00:33:21.816Z,98265.58
2018-12-31T00:35:51.280Z,98271.30
2018-12-31T00:38:20.741Z,98269.34
2018-12-31T00:40:50.228Z,98267.34
2018-12-31T00:43:19.683Z,98267.19
2018-12-31T00:45:49.184Z,98271.98
2018-12-31T00:48:18.676Z,98272.43
2018-12-31T00:50:48.138Z,98278.73
2018-12-31T00:53:17.648Z,98276.45
2018-12-31T00:55:47.199Z,98283.53
2018-12-31T00:58:16.661Z,98281.19
2018-12-31T01:00:46.373Z,98282.90
2018-12-31T01:03:15.840Z,98278.73
2018-12-31T01:05:45.300Z,98277.07
2018-12-31T01:08:14.877Z,98280.92
2018-12-31T01:10:44.849Z,98282.81
2018-12-31T01:13:14.337Z,98282.05
2018-12-31T01:15:43.801Z,98275.44
2018-12-31T01:18:13.253Z,98278.78
2018-12-31T01:20:42.748Z,98280.14
2018-12-31T01:23:12.217Z,98282.30
2018-12-31T01:25:43.165Z,98278.03
2018-12-31T01:28:12.858Z,98270.56
2018-12-31T01:30:42.321Z,98268.33
2018-12-31T01:33:11.781Z,98262.73
2018-12-31T01:35:41.277Z,98282.18
2018-12-31T01:38:10.753Z,98279.88
2018-12-31T01:40:41.788Z,98284.52
2018-12-31T01:43:11.285Z,98286.94
2018-12-31T01:45:40.797Z,98284.13
2018-12-31T01:48:10.347Z,98278.37
2018-12-31T01:50:39.757Z,98274.45
2018-12-31T01:53:09.215Z,98283.59
2018-12-31T01:55:38.721Z,98283.93
2018-12-31T01:58:08.210Z,98283.75
2018-12-31T02:00:37.675Z,98289.13
2018-12-31T02:03:07.177Z,98274.22
2018-12-31T02:05:36.679Z,98282.52
2018-12-31T02:08:06.181Z,98277.36
2018-12-31T02:10:35.645Z,98280.64
2018-12-31T02:13:05.098Z,98281.88
2018-12-31T02:15:34.584Z,98279.02
2018-12-31T02:18:04.047Z,98277.19
2018-12-31T02:20:33.512Z,98275.53
2018-12-31T02:23:03.002Z,98270.55
2018-12-31T02:25:32.463Z,98278.63
2018-12-31T02:28:01.962Z,98278.50
2018-12-31T02:30:31.443Z,98278.94
2018-12-31T02:33:00.918Z,98282.97
2018-12-31T02:35:30.415Z,98285.75
2018-12-31T02:37:59.885Z,98282.25
2018-12-31T02:40:29.353Z,98289.55
2018-12-31T02:42:58.840Z,98297.81
2018-12-31T02:45:28.302Z,98298.09
2018-12-31T02:47:57.836Z,98288.67
2018-12-31T02:50:27.255Z,98283.98
2018-12-31T02:52:56.718Z,98286.05
2018-12-31T02:55:26.203Z,98289.81
2018-12-31T02:57:55.664Z,98291.23
2018-12-31T03:00:25.159Z,98283.89
2018-12-31T03:02:54.653Z,98273.48
2018-12-31T03:05:24.129Z,98275.36
2018-12-31T03:07:53.617Z,98275.11
2018-12-31T03:10:23.112Z,98280.82
2018-12-31T03:12:52.596Z,98275.91
2018-12-31T03:15:23.702Z,98278.31
2018-12-31T03:17:53.203Z,98277.66
2018-12-31T03:20:22.660Z,98267.33
2018-12-31T03:22:52.123Z,98261.61
2018-12-31T03:25:21.705Z,98260.65
2018-12-31T03:27:51.169Z,98267.83
2018-12-31T03:30:20.687Z,98267.58
2018-12-31T03:32:57.348Z,98226.49
2018-12-31T03:35:26.853Z,98259.70
2018-12-31T03:37:56.321Z,98263.95
2018-12-31T03:40:25.781Z,98260.73
2018-12-31T03:42:55.278Z,98260.97
2018-12-31T03:45:24.782Z,98256.80
2018-12-31T03:47:54.241Z,98259.41
2018-12-31T03:50:23.708Z,98262.52
2018-12-31T03:52:53.212Z,98263.10
2018-12-31T03:55:22.669Z,98261.81
2018-12-31T03:57:52.157Z,98265.60
2018-12-31T04:00:21.674Z,98264.44
2018-12-31T04:02:51.141Z,98271.14
2018-12-31T04:05:20.635Z,98272.77
2018-12-31T04:07:53.081Z,98275.52
2018-12-31T04:10:21.302Z,98275.09
2018-12-31T04:12:50.799Z,98283.57
2018-12-31T04:15:20.270Z,98277.47
2018-12-31T04:17:49.736Z,98280.16
2018-12-31T04:20:19.224Z,98281.54
2018-12-31T04:22:48.679Z,98292.66
2018-12-31T04:25:18.150Z,98293.20
2018-12-31T04:27:48.448Z,98293.54
2018-12-31T04:30:17.921Z,98289.86
2018-12-31T04:32:47.381Z,98289.17
2018-12-31T04:35:16.923Z,98292.26
2018-12-31T04:37:46.424Z,98303.73
2018-12-31T04:40:15.915Z,98296.44
2018-12-31T04:42:45.723Z,98290.73
2018-12-31T04:45:15.172Z,98298.89
2018-12-31T04:47:44.688Z,98309.17
2018-12-31T04:50:14.093Z,98307.25
2018-12-31T04:52:43.641Z,98306.38
2018-12-31T04:55:13.118Z,98310.98
2018-12-31T04:57:42.575Z,98316.44
2018-12-31T05:00:12.037Z,98317.84
2018-12-31T05:02:41.534Z,98302.67
2018-12-31T05:05:11.030Z,98306.12
2018-12-31T05:07:42.151Z,98315.41
2018-12-31T05:10:11.617Z,98320.39
2018-12-31T05:12:44.203Z,98314.80
2018-12-31T05:15:13.665Z,98331.59
2018-12-31T05:17:43.166Z,98340.93
2018-12-31T05:20:12.658Z,98339.38
2018-12-31T05:22:42.116Z,98339.88
2018-12-31T05:25:11.610Z,98353.26
2018-12-31T05:27:41.072Z,98353.52
2018-12-31T05:30:10.474Z,98346.81
2018-12-31T05:32:41.095Z,98347.80
2018-12-31T05:35:10.516Z,98354.77
2018-12-31T05:37:39.979Z,98367.75
2018-12-31T05:40:09.458Z,98380.20
2018-12-31T05:42:38.927Z,98374.03
2018-12-31T05:45:08.419Z,98366.13
2018-12-31T05:47:37.937Z,98373.23
2018-12-31T05:50:07.396Z,98372.19
2018-12-31T05:52:36.883Z,98376.95
2018-12-31T05:55:06.338Z,98387.38
2018-12-31T05:57:35.846Z,98386.41
2018-12-31T06:00:06.005Z,98390.56
2018-12-31T06:02:35.470Z,98388.34
2018-12-31T06:05:05.002Z,98401.84
2018-12-31T06:07:34.468Z,98399.61
2018-12-31T06:10:03.940Z,98403.38
2018-12-31T06:12:33.560Z,98414.41
2018-12-31T06:15:03.024Z,98414.73
2018-12-31T06:17:32.521Z,98411.03
2018-12-31T06:20:01.979Z,98421.83
2018-12-31T06:22:31.438Z,98422.50
2018-12-31T06:25:00.930Z,98427.06
2018-12-31T06:27:30.396Z,98418.16
2018-12-31T06:30:00.264Z,98424.16
2018-12-31T06:32:31.085Z,98417.67
2018-12-31T06:35:00.573Z,98428.63
2018-12-31T06:37:30.052Z,98444.13
2018-12-31T06:39:59.510Z,98451.58
2018-12-31T06:42:29.087Z,98450.17
2018-12-31T06:44:58.565Z,98456.71
2018-12-31T06:47:28.027Z,98470.44
2018-12-31T06:49:57.515Z,98465.22
2018-12-31T06:52:27.034Z,98457.23
2018-12-31T06:54:56.498Z,98454.30
2018-12-31T06:57:25.966Z,98455.30
2018-12-31T06:59:55.651Z,98459.09
2018-12-31T07:02:25.226Z,98459.98
2018-12-31T07:04:54.714Z,98467.63
2018-12-31T07:07:24.179Z,98462.64
2018-12-31T07:09:53.667Z,98468.69
2018-12-31T07:12:23.125Z,98475.30
2018-12-31T07:14:52.591Z,98472.52
2018-12-31T07:17:22.071Z,98467.92
2018-12-31T07:19:51.539Z,98463.72
2018-12-31T07:22:21.044Z,98475.22
2018-12-31T07:24:50.527Z,98469.73
2018-12-31T07:27:19.987Z,98468.52
2018-12-31T07:29:49.449Z,98479.72
2018-12-31T07:32:18.907Z,98478.92
2018-12-31T07:34:48.368Z,98482.95
2018-12-31T07:37:17.860Z,98490.16
2018-12-31T07:39:48.902Z,98482.73
2018-12-31T07:42:18.408Z,98485.48
2018-12-31T07:44:47.858Z,98484.47
2018-12-31T07:47:17.448Z,98492.86
2018-12-31T07:49:46.938Z,98489.86
2018-12-31T07:52:16.324Z,98488.33
2018-12-31T07:54:45.803Z,98490.87
2018-12-31T07:57:15.290Z,98496.09
2018-12-31T07:59:44.751Z,98488.11
2018-12-31T08:02:14.238Z,98486.77
2018-12-31T08:04:43.709Z,98491.48
2018-12-31T08:07:13.162Z,98484.41
2018-12-31T08:09:42.678Z,98488.41
2018-12-31T08:12:12.145Z,98483.20
2018-12-31T08:14:41.538Z,98494.25
2018-12-31T08:17:11.052Z,98499.47
2018-12-31T08:19:40.659Z,98493.42
2018-12-31T08:22:10.138Z,98486.23
2018-12-31T08:24:42.241Z,98489.56
2018-12-31T08:27:11.714Z,98494.47
2018-12-31T08:29:41.183Z,98503.62
2018-12-31T08:32:10.660Z,98502.44
2018-12-31T08:34:40.126Z,98503.25
2018-12-31T08:37:09.583Z,98504.67
2018-12-31T08:39:38.994Z,98511.14
2018-12-31T08:42:08.381Z,98509.61
2018-12-31T08:44:37.787Z,98503.77
2018-12-31T08:47:07.246Z,98514.25
2018-12-31T08:49:36.707Z,98517.45
2018-12-31T08:52:06.197Z,98514.75
2018-12-31T08:54:35.656Z,98517.59
2018-12-31T08:57:05.162Z,98531.36
2018-12-31T08:59:34.625Z,98536.48
2018-12-31T09:02:04.121Z,98525.38
2018-12-31T09:04:33.582Z,98531.73
2018-12-31T09:07:03.049Z,98536.89
2018-12-31T09:09:32.545Z,98533.65
2018-12-31T09:12:02.115Z,98533.45
2018-12-31T09:14:32.967Z,98537.33
2018-12-31T09:17:02.437Z,98534.30
2018-12-31T09:19:31.909Z,98539.30
2018-12-31T09:22:01.443Z,98527.36
2018-12-31T09:24:30.937Z,98531.18
2018-12-31T09:27:00.471Z,98520.73
2018-12-31T09:29:30.062Z,98516.83
2018-12-31T09:31:59.557Z,98521.53
2018-12-31T09:34:29.131Z,98515.80
2018-12-31T09:36:58.658Z,98516.83
2018-12-31T09:39:28.143Z,98521.61
2018-12-31T09:41:57.650Z,98506.13
2018-12-31T09:44:27.122Z,98502.34
2018-12-31T09:46:56.588Z,98495.18
2018-12-31T09:49:26.281Z,98494.48
2018-12-31T09:51:55.771Z,98487.41
2018-12-31T09:54:25.255Z,98491.03
2018-12-31T09:56:54.729Z,98496.22
2018-12-31T09:59:24.194Z,98489.53
2018-12-31T10:01:53.741Z,98489.25
2018-12-31T10:04:23.213Z,98485.56
2018-12-31T10:06:52.872Z,98470.45
2018-12-31T10:09:22.370Z,98476.75
2018-12-31T10:11:51.850Z,98471.21
2018-12-31T10:14:21.366Z,98468.20
2018-12-31T10:16:50.824Z,98462.70
2018-12-31T10:19:20.324Z,98467.84
2018-12-31T10:21:49.815Z,98469.70
2018-12-31T10:24:19.280Z,98474.08
2018-12-31T10:26:48.785Z,98458.25
2018-12-31T10:29:18.231Z,98459.02
2018-12-31T10:31:47.709Z,98467.34
2018-12-31T10:34:17.212Z,98466.88
2018-12-31T10:36:46.691Z,98462.56
2018-12-31T10:39:16.189Z,98462.48
2018-12-31T10:41:45.668Z,98467.73
2018-12-31T10:44:15.140Z,98466.06
2018-12-31T10:46:46.909Z,98464.14
2018-12-31T10:49:16.533Z,98461.69
2018-12-31T10:51:46.132Z,98455.02
2018-12-31T10:54:15.606Z,98438.73
2018-12-31T10:56:45.072Z,98453.16
2018-12-31T10:59:14.619Z,98430.83
2018-12-31T11:01:44.135Z,98420.48
2018-12-31T11:04:13.630Z,98422.36
2018-12-31T11:06:43.097Z,98419.22
2018-12-31T11:09:12.574Z,98412.34
2018-12-31T11:11:42.078Z,98408.15
2018-12-31T11:14:11.544Z,98412.00
2018-12-31T11:16:40.981Z,98406.65
2018-12-31T11:19:10.442Z,98406.13
2018-12-31T11:21:39.923Z,98407.80
2018-12-31T11:24:09.412Z,98409.56
2018-12-31T11:26:38.866Z,98406.80
2018-12-31T11:29:08.324Z,98399.02
2018-12-31T11:31:37.929Z,98400.80
2018-12-31T11:34:07.402Z,98393.16
2018-12-31T11:36:36.909Z,98392.43
2018-12-31T11:39:07.775Z,98391.75
2018-12-31T11:41:37.246Z,98392.19
2018-12-31T11:44:06.740Z,98384.02
2018-12-31T11:46:36.203Z,98382.14
2018-12-31T11:49:05.771Z,98375.89
2018-12-31T11:51:35.251Z,98367.91
2018-12-31T11:54:04.734Z,98370.77
2018-12-31T11:56:34.194Z,98371.48
2018-12-31T11:59:03.670Z,98374.08
2018-12-31T12:01:33.270Z,98372.41
2018-12-31T12:04:02.725Z,98374.59
2018-12-31T12:06:32.204Z,98363.75
2018-12-31T12:09:01.702Z,98366.45
2018-12-31T12:11:31.200Z,98364.94
2018-12-31T12:14:00.681Z,98364.84
2018-12-31T12:16:30.147Z,98367.06
2018-12-31T12:18:59.615Z,98368.87
2018-12-31T12:21:29.123Z,98367.41
2018-12-31T12:23:58.592Z,98367.66
2018-12-31T12:26:28.066Z,98366.69
2018-12-31T12:28:57.576Z,98370.77
2018-12-31T12:31:27.050Z,98371.43
2018-12-31T12:33:56.554Z,98377.13
2018-12-31T12:36:27.931Z,98378.97
2018-12-31T12:38:57.400Z,98379.18
2018-12-31T12:41:26.910Z,98377.83
2018-12-31T12:43:56.749Z,98377.23
2018-12-31T12:46:26.218Z,98384.28
2018-12-31T12:48:55.734Z,98387.00
2018-12-31T12:51:25.195Z,98390.80
2018-12-31T12:53:54.767Z,98383.83
2018-12-31T12:56:24.467Z,98382.88
2018-12-31T12:58:54.145Z,98373.20
2018-12-31T13:01:23.696Z,98379.78
2018-12-31T13:03:53.293Z,98377.09
2018-12-31T13:06:22.756Z,98372.23
2018-12-31T13:08:52.233Z,98371.41
2018-12-31T13:11:21.736Z,98374.48
2018-12-31T13:13:51.147Z,98377.77
2018-12-31T13:16:20.625Z,98379.50
2018-12-31T13:18:50.130Z,98378.07
2018-12-31T13:21:19.604Z,98377.80
2018-12-31T13:23:49.121Z,98379.13
2018-12-31T13:26:18.587Z,98378.33
2018-12-31T13:28:48.074Z,98384.39
2018-12-31T13:31:17.878Z,98388.30
2018-12-31T13:33:48.292Z,98384.85
2018-12-31T13:36:17.816Z,98388.83
2018-12-31T13:38:47.378Z,98398.84
2018-12-31T13:41:16.858Z,98400.66
2018-12-31T13:43:46.623Z,98409.95
2018-12-31T13:46:16.082Z,98409.88
2018-12-31T13:48:45.561Z,98423.70
2018-12-31T13:51:15.073Z,98424.79
2018-12-31T13:53:44.492Z,98422.64
2018-12-31T13:56:13.985Z,98430.83
2018-12-31T13:58:43.446Z,98439.32
2018-12-31T14:01:12.925Z,98440.08
2018-12-31T14:03:42.447Z,98442.66
2018-12-31T14:06:11.914Z,98444.05
2018-12-31T14:08:41.406Z,98438.31
2018-12-31T14:11:10.867Z,98453.94
2018-12-31T14:13:40.324Z,98457.02
2018-12-31T14:16:09.892Z,98455.84
2018-12-31T14:18:39.746Z,98455.60
2018-12-31T14:21:09.238Z,98461.63
2018-12-31T14:23:38.713Z,98467.59
2018-12-31T14:26:08.180Z,98465.18
2018-12-31T14:28:37.674Z,98461.55
2018-12-31T14:31:07.467Z,98470.00
2018-12-31T14:33:36.986Z,98475.66
2018-12-31T14:36:06.452Z,98472.84
2018-12-31T14:38:35.919Z,98470.42
2018-12-31T14:41:05.409Z,98474.97
2018-12-31T14:43:34.880Z,98477.59
2018-12-31T14:46:04.381Z,98478.98
2018-12-31T14:48:33.841Z,98486.86
2018-12-31T14:51:03.312Z,98482.66
2018-12-31T14:53:32.837Z,98491.94
2018-12-31T14:56:02.301Z,98495.44
2018-12-31T14:58:31.753Z,98495.91
2018-12-31T15:01:01.249Z,98496.03
2018-12-31T15:03:30.716Z,98500.25
2018-12-31T15:06:00.368Z,98496.95
2018-12-31T15:08:29.869Z,98498.25
2018-12-31T15:10:59.331Z,98500.25
2018-12-31T15:13:28.838Z,98506.17
2018-12-31T15:15:58.311Z,98511.22
2018-12-31T15:18:28.143Z,98514.91
2018-12-31T15:20:57.630Z,98515.36
2018-12-31T15:23:27.119Z,98521.04
2018-12-31T15:25:56.583Z,98525.13
2018-12-31T15:28:26.100Z,98527.30
2018-12-31T15:30:55.945Z,98527.80
2018-12-31T15:33:25.408Z,98526.89
2018-12-31T15:35:54.921Z,98528.48
2018-12-31T15:38:24.380Z,98532.84
2018-12-31T15:40:53.868Z,98536.70
2018-12-31T15:43:23.720Z,98540.23
2018-12-31T15:45:53.180Z,98536.02
2018-12-31T15:48:22.669Z,98542.34
2018-12-31T15:50:52.130Z,98545.05
2018-12-31T15:53:21.666Z,98537.92
2018-12-31T15:55:51.195Z,98544.38
2018-12-31T15:58:20.654Z,98546.56
2018-12-31T16:00:50.113Z,98553.41
2018-12-31T16:03:19.602Z,98558.38
2018-12-31T16:05:49.059Z,98556.56
2018-12-31T16:08:18.513Z,98562.16
2018-12-31T16:10:47.995Z,98562.51
2018-12-31T16:13:17.466Z,98562.61
2018-12-31T16:15:46.948Z,98562.29
2018-12-31T16:18:16.422Z,98566.05
2018-12-31T16:20:45.938Z,98566.42
2018-12-31T16:23:15.441Z,98573.41
2018-12-31T16:25:45.065Z,98577.42
2018-12-31T16:28:14.582Z,98578.56
2018-12-31T16:30:44.076Z,98576.63
2018-12-31T16:33:13.532Z,98577.17
2018-12-31T16:35:43.017Z,98581.41
2018-12-31T16:38:12.614Z,98581.48
2018-12-31T16:40:42.180Z,98580.44
2018-12-31T16:43:11.631Z,98580.58
2018-12-31T16:45:41.204Z,98585.17
2018-12-31T16:48:10.685Z,98591.13
2018-12-31T16:50:40.149Z,98592.60
2018-12-31T16:53:09.620Z,98599.26
2018-12-31T16:55:39.514Z,98596.18
2018-12-31T16:58:09.002Z,98594.59
2018-12-31T17:00:38.476Z,98598.42
2018-12-31T17:03:07.934Z,98595.61
2018-12-31T17:05:37.397Z,98592.44
2018-12-31T17:08:07.283Z,98584.89
2018-12-31T17:10:36.751Z,98594.31
2018-12-31T17:13:06.181Z,98596.27
2018-12-31T17:15:35.637Z,98596.34
2018-12-31T17:18:05.221Z,98596.76
2018-12-31T17:20:34.997Z,98600.27
2018-12-31T17:23:04.481Z,98600.53
2018-12-31T17:25:34.028Z,98603.56
2018-12-31T17:28:03.446Z,98603.93
2018-12-31T17:30:32.898Z,98612.41
2018-12-31T17:33:02.693Z,98612.50
2018-12-31T17:35:32.173Z,98616.13
2018-12-31T17:38:01.630Z,98613.41
2018-12-31T17:40:31.121Z,98614.61
2018-12-31T17:43:00.579Z,98616.86
2018-12-31T17:45:30.264Z,98620.70
2018-12-31T17:47:59.712Z,98618.98
2018-12-31T17:50:29.178Z,98624.97
2018-12-31T17:52:58.593Z,98620.12
2018-12-31T17:55:28.049Z,98615.36
2018-12-31T17:57:57.723Z,98617.48
2018-12-31T18:00:27.187Z,98618.00
2018-12-31T18:02:56.651Z,98623.22
2018-12-31T18:05:26.144Z,98623.83
2018-12-31T18:07:55.609Z,98628.18
2018-12-31T18:10:25.146Z,98629.41
2018-12-31T18:12:54.641Z,98632.69
2018-12-31T18:15:24.100Z,98630.56
2018-12-31T18:17:53.580Z,98633.19
2018-12-31T18:20:23.050Z,98639.44
2018-12-31T18:22:52.520Z,98643.16
2018-12-31T18:25:22.010Z,98643.47
2018-12-31T18:27:51.461Z,98644.06
2018-12-31T18:30:20.920Z,98653.08
2018-12-31T18:32:50.412Z,98653.63
2018-12-31T18:35:19.881Z,98665.77
2018-12-31T18:37:49.273Z,98665.28
2018-12-31T18:40:18.763Z,98666.53
2018-12-31T18:42:48.219Z,98669.00
2018-12-31T18:45:17.702Z,98670.13
2018-12-31T18:47:47.160Z,98674.88
2018-12-31T18:50:16.616Z,98682.48
2018-12-31T18:52:46.101Z,98679.57
2018-12-31T18:55:15.652Z,98684.59
2018-12-31T18:57:45.079Z,98692.22
2018-12-31T19:00:14.538Z,98693.67
2018-12-31T19:02:44.031Z,98689.95
2018-12-31T19:05:13.532Z,98693.24
2018-12-31T19:07:43.003Z,98690.92
2018-12-31T19:10:12.433Z,98697.25
2018-12-31T19:12:41.855Z,98692.28
2018-12-31T19:15:11.326Z,98697.24
2018-12-31T19:17:40.784Z,98692.01
2018-12-31T19:20:10.287Z,98698.74
2018-12-31T19:22:39.763Z,98695.54
2018-12-31T19:25:11.218Z,98697.81
2018-12-31T19:27:40.479Z,98703.68
2018-12-31T19:30:09.943Z,98703.05
2018-12-31T19:32:39.433Z,98704.75
2018-12-31T19:35:09.206Z,98706.78
2018-12-31T19:37:38.679Z,98697.84
2018-12-31T19:40:08.126Z,98702.90
2018-12-31T19:42:37.616Z,98702.17
2018-12-31T19:45:07.077Z,98708.66
2018-12-31T19:47:36.837Z,98712.31
2018-12-31T19:50:06.406Z,98716.95
2018-12-31T19:52:35.903Z,98717.32
2018-12-31T19:55:07.082Z,98715.42
2018-12-31T19:57:36.595Z,98722.25
2018-12-31T20:00:08.976Z,98724.09
2018-12-31T20:02:38.427Z,98722.70
2018-12-31T20:05:07.926Z,98722.95
2018-12-31T20:07:37.422Z,98722.05
2018-12-31T20:10:07.193Z,98724.83
2018-12-31T20:12:36.654Z,98721.16
2018-12-31T20:15:06.785Z,98728.55
2018-12-31T20:17:36.313Z,98733.39
2018-12-31T20:20:06.252Z,98729.52
2018-12-31T20:22:35.717Z,98731.83
2018-12-31T20:25:05.377Z,98734.09
2018-12-31T20:27:34.866Z,98735.17
2018-12-31T20:30:04.767Z,98740.06
2018-12-31T20:32:34.234Z,98745.44
2018-12-31T20:35:03.670Z,98750.45
2018-12-31T20:37:33.446Z,98753.52
2018-12-31T20:40:02.926Z,98750.25
2018-12-31T20:42:32.389Z,98748.79
2018-12-31T20:45:01.899Z,98736.59
2018-12-31T20:47:31.386Z,98743.98
2018-12-31T20:50:00.950Z,98749.63
2018-12-31T20:52:30.408Z,98751.91
2018-12-31T20:54:59.873Z,98750.41
2018-12-31T20:57:29.362Z,98750.61
2018-12-31T20:59:58.799Z,98757.52
2018-12-31T21:02:28.322Z,98763.29
2018-12-31T21:04:57.792Z,98763.54
2018-12-31T21:07:27.265Z,98765.48
2018-12-31T21:09:56.742Z,98757.92
2018-12-31T21:12:26.211Z,98760.34
2018-12-31T21:14:55.671Z,98765.75
2018-12-31T21:17:25.179Z,98767.49
2018-12-31T21:19:54.614Z,98764.14
2018-12-31T21:22:24.063Z,98765.59
2018-12-31T21:24:53.521Z,98765.72
2018-12-31T21:27:22.980Z,98766.76
2018-12-31T21:29:52.488Z,98768.66
2018-12-31T21:32:21.955Z,98765.91
2018-12-31T21:34:51.456Z,98772.53
2018-12-31T21:37:20.897Z,98770.00
2018-12-31T21:39:50.363Z,98764.58
2018-12-31T21:42:19.892Z,98768.87
2018-12-31T21:44:49.332Z,98769.19
2018-12-31T21:47:18.862Z,98774.67
2018-12-31T21:49:48.329Z,98771.48
2018-12-31T21:52:17.804Z,98776.26
2018-12-31T21:54:47.262Z,98784.22
2018-12-31T21:57:18.216Z,98783.37
2018-12-31T21:59:47.838Z,98782.77
2018-12-31T22:02:17.298Z,98778.99
2018-12-31T22:04:46.767Z,98780.45
2018-12-31T22:07:16.274Z,98783.72
2018-12-31T22:09:45.741Z,98785.34
2018-12-31T22:12:15.218Z,98786.96
2018-12-31T22:14:44.646Z,98792.45
2018-12-31T22:17:14.115Z,98784.82
2018-12-31T22:19:43.602Z,98780.66
2018-12-31T22:22:13.068Z,98782.71
2018-12-31T22:24:42.569Z,98783.93
2018-12-31T22:27:12.036Z,98791.76
2018-12-31T22:29:41.529Z,98789.85
2018-12-31T22:32:11.003Z,98793.98
2018-12-31T22:34:40.474Z,98786.58
2018-12-31T22:37:09.961Z,98792.00
2018-12-31T22:39:39.392Z,98792.84
2018-12-31T22:42:08.922Z,98798.86
2018-12-31T22:44:38.388Z,98797.09
2018-12-31T22:47:07.781Z,98791.72
2018-12-31T22:49:37.284Z,98787.96
2018-12-31T22:52:06.757Z,98788.53
2018-12-31T22:54:36.721Z,98789.59
2018-12-31T22:57:06.388Z,98789.05
2018-12-31T22:59:35.784Z,98794.42
2018-12-31T23:02:05.268Z,98793.09
2018-12-31T23:04:34.778Z,98793.78
2018-12-31T23:07:04.289Z,98795.52
2018-12-31T23:09:40.977Z,98796.64
2018-12-31T23:12:04.959Z,98794.43
2018-12-31T23:14:34.453Z,98794.95
2018-12-31T23:17:03.926Z,98800.92
2018-12-31T23:19:41.386Z,98797.91
2018-12-31T23:22:04.983Z,98804.73
2018-12-31T23:24:34.487Z,98806.64
2018-12-31T23:27:03.952Z,98801.98
2018-12-31T23:29:33.426Z,98798.67
2018-12-31T23:32:03.305Z,98798.39
2018-12-31T23:34:32.856Z,98799.12
2018-12-31T23:37:02.343Z,98793.88
2018-12-31T23:39:31.844Z,98797.02
2018-12-31T23:42:01.308Z,98800.17
2018-12-31T23:44:31.177Z,98796.05
2018-12-31T23:47:00.651Z,98794.83
2018-12-31T23:49:30.110Z,98792.13
2018-12-31T23:51:59.594Z,98792.57
2018-12-31T23:54:29.054Z,98796.77
2018-12-31T23:56:58.935Z,98793.62
2018-12-31T23:59:28.408Z,98788.97
